createdAt,value
2023-04-19T00:03:35.065Z,69.53
2023-04-19T00:06:03.881Z,69.38
2023-04-19T00:08:32.004Z,69.41
2023-04-19T00:11:01.423Z,69.32
2023-04-19T00:13:29.989Z,69.22
2023-04-19T00:15:58.339Z,69.18
2023-04-19T00:18:26.632Z,69.63
2023-04-19T00:20:54.786Z,69.95
2023-04-19T00:23:23.029Z,69.68
2023-04-19T00:25:52.822Z,69.79
2023-04-19T00:28:21.538Z,69.52
2023-04-19T00:30:49.671Z,68.86
2023-04-19T00:33:18.611Z,67.87
2023-04-19T00:35:46.906Z,66.57
2023-04-19T00:38:15.605Z,65.67
2023-04-19T00:40:44.325Z,64.41
2023-04-19T00:43:17.814Z,64.54
2023-04-19T00:45:48.204Z,63.79
2023-04-19T00:48:17.078Z,63.90
2023-04-19T00:50:46.138Z,63.43
2023-04-19T00:53:16.037Z,63.13
2023-04-19T00:55:44.864Z,63.19
2023-04-19T00:58:14.708Z,62.96
2023-04-19T01:00:44.428Z,63.00
2023-04-19T01:03:13.952Z,62.96
2023-04-19T01:05:42.803Z,62.16
2023-04-19T01:08:11.139Z,62.29
2023-04-19T01:10:39.282Z,61.73
2023-04-19T01:13:07.790Z,61.80
2023-04-19T01:15:37.459Z,61.45
2023-04-19T01:18:05.850Z,61.02
2023-04-19T01:20:34.508Z,61.08
2023-04-19T01:23:02.774Z,60.57
2023-04-19T01:25:30.870Z,60.15
2023-04-19T01:27:59.298Z,60.02
2023-04-19T01:30:27.674Z,59.26
2023-04-19T01:32:55.821Z,59.56
2023-04-19T01:35:24.177Z,59.10
2023-04-19T01:37:53.061Z,59.17
2023-04-19T01:40:24.508Z,58.55
2023-04-19T01:42:54.284Z,58.11
2023-04-19T01:45:22.666Z,57.74
2023-04-19T01:47:51.791Z,57.30
2023-04-19T01:50:20.765Z,56.70
2023-04-19T01:52:49.383Z,56.46
2023-04-19T01:55:17.764Z,55.95
2023-04-19T01:57:45.897Z,55.69
2023-04-19T02:00:14.777Z,55.39
2023-04-19T02:02:44.250Z,55.19
2023-04-19T02:05:13.884Z,55.14
2023-04-19T02:07:42.572Z,54.81
2023-04-19T02:10:12.332Z,54.24
2023-04-19T02:12:41.677Z,54.28
2023-04-19T02:15:10.502Z,53.71
2023-04-19T02:17:38.954Z,54.03
2023-04-19T02:20:08.099Z,53.94
2023-04-19T02:22:36.340Z,53.73
2023-04-19T02:25:05.482Z,53.36
2023-04-19T02:27:33.667Z,53.10
2023-04-19T02:30:01.899Z,52.58
2023-04-19T02:32:31.376Z,52.84
2023-04-19T02:34:59.823Z,52.68
2023-04-19T02:37:28.661Z,51.94
2023-04-19T02:39:56.730Z,51.09
2023-04-19T02:42:24.943Z,51.06
2023-04-19T02:44:53.182Z,51.21
2023-04-19T02:47:26.636Z,50.91
2023-04-19T02:49:55.591Z,50.13
2023-04-19T02:52:23.773Z,50.42
2023-04-19T02:54:52.400Z,50.71
2023-04-19T02:57:20.507Z,50.68
2023-04-19T02:59:49.312Z,50.61
2023-04-19T03:02:18.841Z,50.56
2023-04-19T03:04:48.913Z,50.21
2023-04-19T03:07:16.974Z,50.34
2023-04-19T03:09:45.504Z,50.24
2023-04-19T03:12:13.634Z,50.06
2023-04-19T03:14:41.827Z,49.94
2023-04-19T03:17:10.150Z,49.93
2023-04-19T03:19:38.319Z,49.67
2023-04-19T03:22:06.649Z,49.51
2023-04-19T03:24:37.795Z,49.36
2023-04-19T03:27:06.845Z,49.55
2023-04-19T03:29:35.572Z,49.32
2023-04-19T03:32:03.960Z,49.38
2023-04-19T03:34:32.133Z,49.34
2023-04-19T03:37:01.234Z,49.20
2023-04-19T03:39:29.595Z,49.12
2023-04-19T03:41:57.652Z,48.54
2023-04-19T03:44:25.934Z,48.76
2023-04-19T03:46:54.117Z,48.82
2023-04-19T03:49:22.782Z,48.09
2023-04-19T03:51:51.965Z,48.76
2023-04-19T03:54:20.503Z,48.64
2023-04-19T03:56:48.705Z,48.70
2023-04-19T03:59:17.027Z,48.60
2023-04-19T04:01:46.674Z,48.39
2023-04-19T04:04:15.474Z,47.92
2023-04-19T04:06:44.498Z,48.06
2023-04-19T04:09:12.855Z,48.01
2023-04-19T04:11:41.285Z,48.09
2023-04-19T04:14:09.469Z,47.63
2023-04-19T04:16:38.211Z,47.89
2023-04-19T04:19:07.412Z,47.99
2023-04-19T04:21:35.611Z,47.92
2023-04-19T04:24:04.187Z,47.74
2023-04-19T04:26:32.717Z,47.88
2023-04-19T04:29:01.543Z,47.12
2023-04-19T04:31:29.880Z,47.58
2023-04-19T04:33:58.679Z,47.91
2023-04-19T04:36:27.485Z,47.88
2023-04-19T04:38:56.232Z,47.88
2023-04-19T04:41:24.240Z,47.97
2023-04-19T04:44:08.304Z,48.00
2023-04-19T04:46:39.394Z,48.03
2023-04-19T04:49:07.534Z,47.96
2023-04-19T04:51:36.271Z,47.91
2023-04-19T04:54:04.734Z,47.65
2023-04-19T04:56:32.944Z,47.97
2023-04-19T04:59:01.152Z,47.81
2023-04-19T05:01:30.902Z,47.81
2023-04-19T05:04:00.583Z,47.58
2023-04-19T05:06:28.869Z,47.46
2023-04-19T05:08:57.416Z,47.33
2023-04-19T05:11:27.615Z,47.33
2023-04-19T05:13:55.804Z,47.22
2023-04-19T05:16:24.302Z,47.32
2023-04-19T05:18:52.563Z,47.21
2023-04-19T05:21:20.745Z,47.32
2023-04-19T05:23:49.717Z,46.91
2023-04-19T05:26:17.925Z,46.90
2023-04-19T05:28:46.644Z,47.09
2023-04-19T05:31:15.289Z,47.00
2023-04-19T05:33:44.086Z,47.22
2023-04-19T05:36:12.238Z,47.06
2023-04-19T05:38:40.551Z,47.09
2023-04-19T05:41:08.869Z,47.10
2023-04-19T05:43:37.053Z,47.15
2023-04-19T05:46:06.049Z,47.12
2023-04-19T05:48:34.312Z,46.87
2023-04-19T05:51:03.613Z,46.81
2023-04-19T05:53:31.740Z,46.58
2023-04-19T05:55:59.867Z,46.58
2023-04-19T05:58:28.023Z,46.45
2023-04-19T06:00:57.650Z,46.16
2023-04-19T06:03:28.737Z,46.12
2023-04-19T06:06:00.466Z,45.84
2023-04-19T06:08:29.379Z,45.84
2023-04-19T06:11:02.119Z,45.94
2023-04-19T06:13:33.541Z,45.61
2023-04-19T06:16:02.925Z,45.71
2023-04-19T06:18:31.448Z,45.89
2023-04-19T06:21:00.224Z,45.69
2023-04-19T06:23:28.442Z,45.04
2023-04-19T06:25:57.112Z,45.38
2023-04-19T06:28:25.350Z,45.20
2023-04-19T06:30:53.588Z,45.17
2023-04-19T06:33:22.103Z,44.89
2023-04-19T06:35:50.399Z,44.54
2023-04-19T06:38:19.190Z,44.23
2023-04-19T06:40:47.544Z,43.66
2023-04-19T06:43:15.849Z,44.10
2023-04-19T06:45:44.457Z,43.85
2023-04-19T06:48:12.830Z,43.90
2023-04-19T06:50:41.522Z,43.62
2023-04-19T06:53:09.958Z,43.45
2023-04-19T06:55:38.891Z,43.15
2023-04-19T06:58:07.321Z,43.03
2023-04-19T07:00:35.684Z,42.98
2023-04-19T07:03:05.340Z,42.59
2023-04-19T07:05:34.076Z,42.51
2023-04-19T07:08:02.227Z,42.29
2023-04-19T07:10:30.397Z,42.05
2023-04-19T07:12:58.591Z,41.76
2023-04-19T07:15:27.995Z,41.44
2023-04-19T07:17:56.823Z,41.19
2023-04-19T07:20:26.367Z,41.30
2023-04-19T07:22:55.147Z,41.44
2023-04-19T07:25:24.529Z,42.01
2023-04-19T07:27:54.434Z,42.20
2023-04-19T07:30:23.240Z,42.14
2023-04-19T07:32:51.957Z,42.01
2023-04-19T07:35:20.913Z,41.81
2023-04-19T07:37:49.745Z,41.92
2023-04-19T07:40:18.789Z,41.87
2023-04-19T07:42:46.948Z,41.71
2023-04-19T07:45:15.906Z,41.50
2023-04-19T07:47:45.406Z,41.38
2023-04-19T07:50:14.110Z,41.11
2023-04-19T07:52:42.510Z,40.91
2023-04-19T07:55:11.685Z,40.63
2023-04-19T07:57:41.862Z,40.65
2023-04-19T08:00:10.800Z,40.63
2023-04-19T08:02:39.689Z,40.00
2023-04-19T08:05:08.958Z,38.42
2023-04-19T08:07:38.397Z,38.39
2023-04-19T08:10:09.346Z,38.78
2023-04-19T08:12:45.262Z,38.21
2023-04-19T08:15:52.514Z,38.34
2023-04-19T08:18:08.139Z,38.85
2023-04-19T08:20:37.373Z,38.96
2023-04-19T08:23:17.714Z,39.05
2023-04-19T08:25:51.518Z,40.03
2023-04-19T08:28:21.362Z,40.31
2023-04-19T08:30:51.067Z,40.26
2023-04-19T08:33:19.837Z,40.49
2023-04-19T08:35:48.215Z,40.44
2023-04-19T08:38:16.890Z,40.56
2023-04-19T08:40:53.840Z,40.75
2023-04-19T08:43:24.786Z,40.48
2023-04-19T08:45:55.280Z,40.19
2023-04-19T08:48:24.561Z,39.74
2023-04-19T08:51:04.526Z,38.75
2023-04-19T08:53:35.042Z,38.95
2023-04-19T08:56:17.381Z,38.89
2023-04-19T08:59:07.503Z,39.30
2023-04-19T09:01:44.518Z,39.01
2023-04-19T09:06:44.671Z,39.64
2023-04-19T09:09:34.177Z,39.82
2023-04-19T09:12:18.556Z,39.06
2023-04-19T09:15:00.706Z,38.35
2023-04-19T09:17:32.471Z,38.49
2023-04-19T09:20:01.042Z,37.23
2023-04-19T09:22:29.776Z,36.96
2023-04-19T09:27:35.433Z,37.92
2023-04-19T09:30:10.805Z,39.41
2023-04-19T09:32:48.795Z,40.11
2023-04-19T09:35:17.782Z,39.77
2023-04-19T09:40:33.101Z,38.70
2023-04-19T09:45:45.375Z,39.87
2023-04-19T09:48:15.047Z,41.60
2023-04-19T09:51:05.941Z,42.51
2023-04-19T09:53:40.864Z,40.15
2023-04-19T09:56:11.868Z,39.46
2023-04-19T09:58:50.075Z,39.96
2023-04-19T10:01:25.110Z,40.03
2023-04-19T10:03:54.457Z,41.36
2023-04-19T10:08:56.232Z,40.86
2023-04-19T10:11:27.294Z,39.58
2023-04-19T10:14:00.232Z,40.25
2023-04-19T10:16:30.984Z,41.43
2023-04-19T10:19:03.760Z,39.98
2023-04-19T10:21:32.907Z,39.73
2023-04-19T10:24:02.220Z,39.44
2023-04-19T10:26:30.990Z,39.37
2023-04-19T10:28:59.454Z,38.44
2023-04-19T10:31:27.811Z,38.43
2023-04-19T10:33:56.235Z,39.44
2023-04-19T10:36:28.340Z,39.59
2023-04-19T10:38:56.610Z,39.10
2023-04-19T10:41:57.563Z,38.13
2023-04-19T10:44:26.198Z,37.47
2023-04-19T10:46:54.481Z,38.33
2023-04-19T10:49:24.638Z,39.26
2023-04-19T10:51:52.879Z,39.50
2023-04-19T10:54:33.035Z,38.78
2023-04-19T10:57:01.268Z,37.54
2023-04-19T10:59:31.563Z,37.20
2023-04-19T11:02:02.567Z,36.89
2023-04-19T11:04:40.021Z,35.23
2023-04-19T11:07:08.769Z,34.80
2023-04-19T11:09:39.263Z,35.69
2023-04-19T11:12:13.805Z,37.08
2023-04-19T11:14:51.555Z,36.88
2023-04-19T11:17:21.497Z,36.21
2023-04-19T11:20:01.646Z,36.18
2023-04-19T11:22:34.332Z,35.87
2023-04-19T11:25:07.116Z,36.45
2023-04-19T11:27:35.506Z,37.23
2023-04-19T11:30:07.646Z,36.70
2023-04-19T11:32:36.982Z,36.53
2023-04-19T11:35:09.150Z,37.67
2023-04-19T11:37:40.593Z,38.50
2023-04-19T11:40:09.401Z,37.83
2023-04-19T11:42:37.617Z,37.21
2023-04-19T11:45:13.232Z,37.04
2023-04-19T11:47:51.928Z,36.55
2023-04-19T11:50:58.543Z,36.34
2023-04-19T11:53:28.079Z,35.51
2023-04-19T11:55:57.374Z,35.84
2023-04-19T11:58:27.889Z,36.91
2023-04-19T12:00:57.902Z,36.85
2023-04-19T12:03:27.014Z,36.83
2023-04-19T12:05:58.778Z,37.64
2023-04-19T12:08:32.231Z,37.34
2023-04-19T12:11:03.574Z,37.71
2023-04-19T12:13:33.427Z,38.54
2023-04-19T12:16:01.756Z,39.10
2023-04-19T12:18:47.115Z,38.97
2023-04-19T12:21:33.142Z,38.17
2023-04-19T12:24:02.844Z,38.40
2023-04-19T12:26:32.366Z,38.51
2023-04-19T12:29:02.810Z,37.99
2023-04-19T12:31:31.922Z,37.70
2023-04-19T12:34:00.317Z,37.97
2023-04-19T12:36:28.796Z,38.22
2023-04-19T12:38:57.044Z,37.72
2023-04-19T12:41:25.272Z,37.73
2023-04-19T12:43:53.883Z,38.70
2023-04-19T12:46:22.194Z,39.67
2023-04-19T12:48:50.703Z,39.23
2023-04-19T12:51:19.612Z,39.60
2023-04-19T12:53:49.395Z,41.19
2023-04-19T12:56:18.252Z,41.96
2023-04-19T12:58:46.587Z,41.87
2023-04-19T13:01:17.729Z,42.05
2023-04-19T13:03:46.190Z,42.27
2023-04-19T13:06:14.726Z,42.93
2023-04-19T13:08:46.557Z,43.70
2023-04-19T13:11:16.951Z,44.48
2023-04-19T13:13:45.416Z,45.15
2023-04-19T13:16:13.868Z,46.23
2023-04-19T13:18:42.376Z,47.04
2023-04-19T13:21:10.535Z,46.48
2023-04-19T13:23:38.761Z,46.45
2023-04-19T13:26:07.315Z,46.34
2023-04-19T13:28:35.669Z,46.38
2023-04-19T13:31:06.048Z,46.06
2023-04-19T13:33:34.581Z,45.98
2023-04-19T13:36:03.037Z,45.75
2023-04-19T13:38:31.772Z,46.07
2023-04-19T13:41:03.964Z,46.42
2023-04-19T13:43:32.724Z,46.60
2023-04-19T13:46:01.055Z,46.70
2023-04-19T13:48:29.936Z,48.12
2023-04-19T13:50:59.802Z,48.71
2023-04-19T13:53:28.638Z,48.29
2023-04-19T13:55:57.290Z,47.38
2023-04-19T13:58:25.638Z,48.18
2023-04-19T14:00:54.557Z,49.47
2023-04-19T14:03:24.687Z,49.36
2023-04-19T14:05:53.221Z,48.41
2023-04-19T14:08:21.472Z,48.73
2023-04-19T14:10:51.459Z,49.39
2023-04-19T14:13:19.797Z,49.87
2023-04-19T14:15:48.140Z,49.96
2023-04-19T14:18:16.399Z,50.81
2023-04-19T14:20:44.809Z,50.43
2023-04-19T14:23:13.178Z,50.68
2023-04-19T14:25:41.461Z,51.02
2023-04-19T14:28:10.332Z,51.82
2023-04-19T14:30:39.363Z,51.54
2023-04-19T14:33:08.000Z,52.03
2023-04-19T14:35:36.487Z,51.65
2023-04-19T14:38:05.168Z,50.37
2023-04-19T14:40:34.006Z,51.90
2023-04-19T14:43:02.315Z,52.62
2023-04-19T14:45:30.562Z,52.11
2023-04-19T14:47:59.045Z,52.55
2023-04-19T14:50:27.309Z,51.88
2023-04-19T14:52:55.611Z,51.28
2023-04-19T14:55:25.708Z,51.99
2023-04-19T14:57:53.850Z,52.13
2023-04-19T15:00:23.434Z,51.70
2023-04-19T15:02:51.921Z,52.00
2023-04-19T15:05:23.408Z,51.59
2023-04-19T15:07:51.996Z,50.66
2023-04-19T15:10:20.092Z,50.86
2023-04-19T15:12:48.304Z,51.09
2023-04-19T15:15:16.919Z,52.24
2023-04-19T15:17:45.220Z,52.76
2023-04-19T15:20:13.777Z,52.99
2023-04-19T15:22:42.238Z,53.02
2023-04-19T15:25:13.391Z,52.84
2023-04-19T15:27:41.566Z,52.38
2023-04-19T15:30:10.745Z,53.58
2023-04-19T15:32:39.221Z,53.61
2023-04-19T15:35:08.102Z,53.59
2023-04-19T15:37:37.370Z,54.36
2023-04-19T15:40:06.369Z,55.33
2023-04-19T15:42:35.233Z,56.33
2023-04-19T15:45:04.722Z,56.46
2023-04-19T15:47:34.591Z,55.93
2023-04-19T15:50:02.897Z,55.94
2023-04-19T15:52:31.129Z,55.67
2023-04-19T15:54:59.357Z,56.30
2023-04-19T15:57:27.747Z,55.84
2023-04-19T15:59:55.933Z,55.81
2023-04-19T16:02:24.190Z,55.81
2023-04-19T16:04:52.771Z,56.09
2023-04-19T16:07:22.036Z,55.49
2023-04-19T16:09:50.438Z,55.55
2023-04-19T16:12:18.653Z,56.20
2023-04-19T16:14:47.466Z,57.49
2023-04-19T16:17:15.722Z,58.45
2023-04-19T16:19:44.024Z,57.79
2023-04-19T16:22:12.713Z,58.71
2023-04-19T16:24:41.277Z,58.87
2023-04-19T16:27:09.452Z,59.05
2023-04-19T16:29:37.632Z,59.77
2023-04-19T16:32:06.628Z,59.63
2023-04-19T16:34:35.092Z,61.06
2023-04-19T16:37:03.936Z,61.07
2023-04-19T16:39:32.402Z,60.75
2023-04-19T16:42:00.674Z,59.84
2023-04-19T16:44:29.403Z,59.65
2023-04-19T16:46:57.636Z,59.02
2023-04-19T16:49:26.025Z,56.59
2023-04-19T16:51:54.727Z,56.81
2023-04-19T16:54:23.205Z,57.55
2023-04-19T16:56:51.521Z,58.77
2023-04-19T16:59:19.833Z,59.34
2023-04-19T17:01:50.664Z,59.17
2023-04-19T17:04:18.882Z,59.51
2023-04-19T17:06:47.305Z,58.56
2023-04-19T17:09:15.534Z,58.44
2023-04-19T17:11:44.141Z,57.92
2023-04-19T17:14:12.598Z,56.18
2023-04-19T17:16:40.763Z,55.52
2023-04-19T17:19:08.897Z,55.59
2023-04-19T17:21:40.620Z,55.17
2023-04-19T17:24:09.104Z,55.28
2023-04-19T17:26:39.067Z,55.50
2023-04-19T17:29:09.724Z,55.98
2023-04-19T17:31:38.832Z,56.90
2023-04-19T17:34:08.481Z,57.09
2023-04-19T17:36:38.606Z,57.25
2023-04-19T17:39:08.427Z,57.35
2023-04-19T17:41:37.731Z,57.84
2023-04-19T17:44:06.875Z,58.03
2023-04-19T17:46:35.098Z,57.60
2023-04-19T17:49:03.383Z,57.11
2023-04-19T17:51:32.408Z,56.96
2023-04-19T17:54:00.583Z,57.10
2023-04-19T17:56:28.874Z,57.31
2023-04-19T17:58:57.889Z,57.53
2023-04-19T18:01:27.448Z,57.10
2023-04-19T18:03:56.705Z,57.66
2023-04-19T18:06:25.286Z,57.06
2023-04-19T18:08:53.888Z,57.19
2023-04-19T18:11:22.043Z,57.08
2023-04-19T18:13:51.866Z,57.98
2023-04-19T18:16:21.857Z,57.21
2023-04-19T18:18:54.297Z,56.19
2023-04-19T18:21:23.801Z,56.47
2023-04-19T18:23:53.709Z,56.18
2023-04-19T18:26:25.371Z,55.87
2023-04-19T18:28:54.856Z,56.58
2023-04-19T18:31:25.694Z,56.05
2023-04-19T18:34:00.482Z,56.36
2023-04-19T18:36:30.162Z,57.86
2023-04-19T18:39:00.770Z,58.10
2023-04-19T18:41:30.028Z,57.16
2023-04-19T18:44:30.012Z,57.06
2023-04-19T18:46:52.770Z,56.82
2023-04-19T18:49:25.283Z,56.57
2023-04-19T18:51:54.596Z,56.50
2023-04-19T18:54:23.642Z,57.38
2023-04-19T18:59:29.968Z,56.68
2023-04-19T19:02:00.432Z,57.59
2023-04-19T19:04:46.815Z,58.03
2023-04-19T19:07:34.969Z,57.92
2023-04-19T19:12:42.160Z,57.40
2023-04-19T19:15:15.031Z,57.88
2023-04-19T19:17:48.828Z,58.13
2023-04-19T19:20:24.303Z,58.33
2023-04-19T19:22:55.385Z,58.38
2023-04-19T19:25:26.830Z,58.69
2023-04-19T19:28:07.537Z,58.63
2023-04-19T19:30:39.498Z,59.12
2023-04-19T19:33:12.098Z,59.16
2023-04-19T19:35:41.925Z,59.02
2023-04-19T19:38:11.837Z,59.61
2023-04-19T19:43:20.264Z,59.81
2023-04-19T19:45:50.448Z,60.11
2023-04-19T19:48:18.650Z,59.97
2023-04-19T19:51:17.195Z,59.97
2023-04-19T19:53:35.261Z,59.85
2023-04-19T19:56:04.318Z,59.86
2023-04-19T19:58:49.720Z,60.06
2023-04-19T20:01:22.500Z,60.09
2023-04-19T20:03:56.539Z,60.02
2023-04-19T20:07:21.506Z,60.01
2023-04-19T20:09:13.501Z,59.94
2023-04-19T20:11:42.838Z,59.84
2023-04-19T20:14:13.086Z,59.83
2023-04-19T20:16:42.907Z,59.88
2023-04-19T20:19:12.380Z,59.77
2023-04-19T20:21:41.706Z,60.04
2023-04-19T20:24:13.966Z,60.15
2023-04-19T20:26:43.738Z,60.08
2023-04-19T20:29:13.721Z,59.98
2023-04-19T20:31:43.233Z,60.23
2023-04-19T20:34:11.515Z,60.25
2023-04-19T20:36:41.013Z,60.27
2023-04-19T20:39:10.765Z,60.13
2023-04-19T20:41:40.187Z,59.98
2023-04-19T20:44:10.164Z,59.87
2023-04-19T20:46:39.283Z,59.65
2023-04-19T20:49:08.934Z,59.49
2023-04-19T20:51:39.040Z,59.29
2023-04-19T20:54:08.336Z,59.26
2023-04-19T20:56:36.447Z,59.26
2023-04-19T20:59:04.754Z,59.25
2023-04-19T21:01:33.462Z,59.34
2023-04-19T21:04:01.933Z,59.38
2023-04-19T21:06:31.038Z,59.70
2023-04-19T21:08:59.283Z,59.83
2023-04-19T21:11:27.387Z,59.61
2023-04-19T21:13:56.058Z,59.62
2023-04-19T21:16:24.358Z,59.66
2023-04-19T21:18:53.074Z,59.47
2023-04-19T21:21:21.590Z,59.28
2023-04-19T21:23:49.890Z,59.15
2023-04-19T21:26:18.571Z,59.01
2023-04-19T21:28:47.172Z,58.82
2023-04-19T21:31:15.653Z,58.57
2023-04-19T21:33:45.219Z,58.46
2023-04-19T21:36:13.607Z,58.28
2023-04-19T21:38:41.767Z,58.11
2023-04-19T21:41:09.958Z,57.83
2023-04-19T21:43:38.698Z,57.57
2023-04-19T21:46:06.874Z,57.23
2023-04-19T21:48:35.205Z,56.92
2023-04-19T21:51:03.683Z,56.10
2023-04-19T21:53:31.824Z,56.45
2023-04-19T21:56:00.054Z,56.33
2023-04-19T21:58:28.358Z,56.17
2023-04-19T22:00:56.575Z,56.06
2023-04-19T22:03:24.840Z,56.10
2023-04-19T22:05:53.181Z,55.99
2023-04-19T22:08:21.451Z,55.98
2023-04-19T22:10:49.592Z,55.67
2023-04-19T22:13:18.377Z,55.73
2023-04-19T22:15:46.688Z,55.67
2023-04-19T22:18:14.975Z,55.55
2023-04-19T22:20:43.316Z,55.04
2023-04-19T22:23:11.564Z,54.05
2023-04-19T22:25:39.746Z,54.40
2023-04-19T22:28:07.981Z,54.70
2023-04-19T22:30:36.184Z,54.78
2023-04-19T22:33:04.496Z,54.68
2023-04-19T22:35:33.616Z,54.84
2023-04-19T22:38:01.886Z,54.80
2023-04-19T22:40:30.153Z,54.84
2023-04-19T22:42:58.461Z,54.79
2023-04-19T22:45:26.755Z,54.60
2023-04-19T22:47:54.973Z,54.52
2023-04-19T22:50:23.359Z,54.36
2023-04-19T22:52:51.600Z,54.04
2023-04-19T22:55:19.927Z,54.18
2023-04-19T22:57:48.370Z,53.90
2023-04-19T23:00:17.037Z,54.03
2023-04-19T23:02:46.738Z,53.92
2023-04-19T23:05:15.457Z,54.07
2023-04-19T23:07:44.429Z,53.96
2023-04-19T23:10:12.768Z,53.86
2023-04-19T23:12:41.199Z,53.82
2023-04-19T23:15:11.517Z,53.65
2023-04-19T23:17:40.033Z,53.78
2023-04-19T23:20:09.734Z,53.67
2023-04-19T23:22:39.405Z,53.60
2023-04-19T23:25:08.582Z,53.58
2023-04-19T23:27:37.430Z,53.57
2023-04-19T23:30:07.166Z,53.73
2023-04-19T23:32:35.598Z,53.73
2023-04-19T23:35:04.994Z,53.38
2023-04-19T23:37:33.329Z,53.39
2023-04-19T23:40:01.492Z,53.41
2023-04-19T23:42:29.962Z,53.54
2023-04-19T23:44:58.864Z,53.68
2023-04-19T23:47:27.092Z,53.87
2023-04-19T23:49:55.297Z,54.27
2023-04-19T23:52:23.452Z,54.52
2023-04-19T23:54:52.314Z,54.86
2023-04-19T23:57:20.979Z,55.01
2023-04-19T23:59:49.946Z,55.27
